Time;durP1;ratioP1;P1;durP2;ratioP2;P2;SDS_P1;SDS_P2;PMS_P1;PMS_P2;Temp;Humidity;BMP_temperature;BMP_pressure;BME280_temperature;BME280_humidity;BME280_pressure;Samples;Min_cycle;Max_cycle;Signal;HPM_P1;HPM_P2
2022/09/12 00:01:57;;;;;;;11.60;10.10;;;14.70;99.90;;;;;;6140548;23;19998;-83
2022/09/12 00:07:14;;;;;;;11.70;10.50;;;14.70;99.90;;;;;;6104878;23;20014;-82
2022/09/12 00:09:53;;;;;;;10.77;9.07;;;14.60;99.90;;;;;;6129506;23;20477;-83
2022/09/12 00:12:30;;;;;;;13.40;10.70;;;14.60;99.90;;;;;;6129521;23;20013;-83
2022/09/12 00:15:05;;;;;;;11.32;9.45;;;14.60;99.90;;;;;;6138588;23;19998;-83
2022/09/12 00:17:42;;;;;;;9.70;8.70;;;14.60;99.90;;;;;;6140348;23;20009;-83
2022/09/12 00:20:34;;;;;;;10.77;9.68;;;14.60;99.90;;;;;;6121249;23;20021;-83
2022/09/12 00:23:37;;;;;;;11.63;10.40;;;14.50;99.90;;;;;;6148658;23;20014;-81
2022/09/12 00:26:06;;;;;;;11.45;10.27;;;14.50;99.90;;;;;;6109805;23;20002;-83
2022/09/12 00:28:42;;;;;;;10.93;9.75;;;14.50;99.90;;;;;;6154292;23;20018;-83
2022/09/12 00:31:35;;;;;;;11.57;10.38;;;14.40;99.90;;;;;;6107189;23;20123;-83
2022/09/12 00:34:21;;;;;;;12.50;11.20;;;14.40;99.90;;;;;;6109706;23;20017;-83
2022/09/12 00:36:50;;;;;;;12.40;11.10;;;14.30;99.90;;;;;;6128314;23;20013;-83
2022/09/12 00:39:19;;;;;;;13.90;11.43;;;14.30;99.90;;;;;;6104810;23;20014;-83
2022/09/12 00:41:45;;;;;;;12.88;11.20;;;14.30;99.90;;;;;;6129183;23;20005;-83
2022/09/12 00:44:12;;;;;;;12.40;11.05;;;14.30;99.90;;;;;;6102432;23;20013;-83
2022/09/12 00:46:50;;;;;;;13.13;11.75;;;14.20;99.90;;;;;;6129280;23;20016;-83
2022/09/12 00:49:20;;;;;;;11.88;10.63;;;14.20;99.90;;;;;;6102658;23;20014;-83
2022/09/12 00:52:14;;;;;;;13.63;12.23;;;14.20;99.90;;;;;;6102621;23;20006;-83
2022/09/12 00:55:04;;;;;;;12.73;11.38;;;14.10;99.90;;;;;;6112466;23;20017;-82
2022/09/12 00:57:49;;;;;;;13.40;10.93;;;14.10;99.90;;;;;;6102313;23;20013;-83
2022/09/12 01:00:21;;;;;;;13.25;11.85;;;14.10;99.90;;;;;;6078073;23;20345;-83
2022/09/12 01:02:56;;;;;;;13.57;11.82;;;14.10;99.90;;;;;;6078265;23;20014;-83
2022/09/12 01:05:27;;;;;;;13.82;11.38;;;14.00;99.90;;;;;;6109954;23;20012;-83
2022/09/12 01:07:56;;;;;;;16.73;12.20;;;14.00;99.90;;;;;;6077900;23;20013;-83
2022/09/12 01:10:25;;;;;;;15.50;13.43;;;14.00;99.90;;;;;;6079246;23;20002;-82
2022/09/12 01:12:52;;;;;;;17.42;13.93;;;13.90;99.90;;;;;;6077894;23;20033;-82
2022/09/12 01:15:20;;;;;;;13.18;11.75;;;14.00;99.90;;;;;;6127222;23;20006;-82
2022/09/12 01:18:41;;;;;;;16.65;12.98;;;13.90;99.90;;;;;;6103234;23;20014;-81
2022/09/12 01:21:33;;;;;;;12.48;11.15;;;13.90;99.90;;;;;;6055370;23;20105;-83
2022/09/12 01:24:46;;;;;;;14.18;12.23;;;13.90;99.90;;;;;;6126793;23;20002;-83
2022/09/12 01:27:48;;;;;;;12.75;10.55;;;13.90;99.90;;;;;;6126171;23;20009;-83
2022/09/12 01:30:24;;;;;;;15.00;10.82;;;13.80;99.90;;;;;;6102769;23;20350;-83
2022/09/12 01:33:05;;;;;;;12.15;10.77;;;13.80;99.90;;;;;;6127282;23;20071;-84
2022/09/12 01:35:44;;;;;;;11.82;10.63;;;13.80;99.90;;;;;;6109196;23;20036;-82
2022/09/12 01:38:38;;;;;;;11.73;10.13;;;13.70;99.90;;;;;;6136114;23;20010;-83
2022/09/12 01:41:23;;;;;;;13.68;10.70;;;13.80;99.90;;;;;;6126991;23;20006;-83
2022/09/12 01:44:25;;;;;;;16.63;13.68;;;13.70;99.90;;;;;;6117861;23;20013;-84
2022/09/12 01:47:09;;;;;;;14.23;12.43;;;13.70;99.90;;;;;;6116378;23;20028;-82
2022/09/12 01:49:58;;;;;;;15.73;13.50;;;13.70;99.90;;;;;;6125111;23;20010;-81
2022/09/12 01:52:28;;;;;;;15.88;12.65;;;13.70;99.90;;;;;;6120269;23;20066;-83
2022/09/12 01:54:59;;;;;;;13.73;11.45;;;13.70;99.90;;;;;;6141682;23;20016;-82
2022/09/12 01:57:37;;;;;;;11.68;10.48;;;13.70;99.90;;;;;;6145194;23;19994;-83
2022/09/12 02:00:08;;;;;;;14.93;12.10;;;13.70;99.90;;;;;;6083375;23;20010;-83
2022/09/12 02:03:02;;;;;;;14.52;12.43;;;13.60;99.90;;;;;;6111078;23;20013;-82
2022/09/12 02:05:34;;;;;;;14.15;11.55;;;13.60;99.90;;;;;;6123882;23;20014;-83
2022/09/12 02:08:16;;;;;;;14.88;12.48;;;13.60;99.90;;;;;;6108834;23;20007;-83
2022/09/12 02:10:54;;;;;;;13.20;10.73;;;13.70;99.90;;;;;;6099831;23;20007;-83
2022/09/12 02:13:28;;;;;;;14.75;12.63;;;13.70;99.90;;;;;;6075774;23;20007;-83
2022/09/12 02:16:02;;;;;;;16.30;13.63;;;13.70;99.90;;;;;;6124189;23;20006;-83
2022/09/12 02:18:30;;;;;;;13.88;12.48;;;13.70;99.90;;;;;;6134650;23;20442;-83
2022/09/12 02:20:59;;;;;;;13.50;11.70;;;13.60;99.90;;;;;;6099799;23;20353;-83
2022/09/12 02:23:30;;;;;;;16.35;13.30;;;13.60;99.90;;;;;;6100085;23;20003;-82
2022/09/12 02:26:04;;;;;;;13.45;12.05;;;13.60;99.90;;;;;;6100031;23;20006;-82
2022/09/12 02:28:34;;;;;;;13.68;11.88;;;13.70;99.90;;;;;;6099347;23;20346;-81
2022/09/12 02:31:25;;;;;;;15.50;12.90;;;13.60;99.90;;;;;;6098652;23;20014;-83
2022/09/12 02:34:39;;;;;;;16.23;12.18;;;13.70;99.90;;;;;;6110441;23;20485;-82
2022/09/12 02:37:38;;;;;;;14.25;11.55;;;13.70;99.90;;;;;;6070013;23;20018;-81
2022/09/12 02:40:07;;;;;;;18.55;14.32;;;13.60;99.90;;;;;;6118050;23;20014;-81
2022/09/12 02:42:35;;;;;;;20.50;16.67;;;13.70;99.90;;;;;;6118638;23;20006;-81
2022/09/12 02:45:02;;;;;;;19.70;15.85;;;13.70;99.90;;;;;;6095570;23;19999;-81
2022/09/12 02:47:43;;;;;;;17.35;14.98;;;13.70;99.90;;;;;;6119472;23;20002;-80
2022/09/12 02:50:09;;;;;;;18.50;15.35;;;13.70;99.90;;;;;;6130871;23;20010;-81
2022/09/12 02:52:36;;;;;;;18.80;15.40;;;13.60;99.90;;;;;;6127884;23;20013;-82
2022/09/12 02:55:04;;;;;;;18.73;15.20;;;13.60;99.90;;;;;;6081340;23;20006;-82
2022/09/12 02:57:32;;;;;;;19.35;15.05;;;13.60;99.90;;;;;;6101566;23;20010;-82
2022/09/12 03:00:00;;;;;;;21.58;15.23;;;13.50;99.90;;;;;;6131815;23;20013;-82
2022/09/12 03:02:38;;;;;;;18.33;13.98;;;13.50;99.90;;;;;;6091003;23;20002;-82
2022/09/12 03:05:27;;;;;;;16.83;13.25;;;13.50;99.90;;;;;;6124417;23;20007;-82
2022/09/12 03:08:26;;;;;;;18.90;14.80;;;13.50;99.90;;;;;;6103360;23;20007;-83
2022/09/12 03:11:22;;;;;;;21.45;16.55;;;13.40;99.90;;;;;;6123896;23;20011;-83
2022/09/12 03:14:13;;;;;;;21.02;15.02;;;13.40;99.90;;;;;;6124774;23;20002;-82
2022/09/12 03:16:52;;;;;;;17.13;14.10;;;13.40;99.90;;;;;;6123761;23;20003;-83
2022/09/12 03:19:34;;;;;;;17.85;13.18;;;13.40;99.90;;;;;;6110713;23;20006;-83
2022/09/12 03:22:25;;;;;;;18.45;14.38;;;13.40;99.90;;;;;;6099418;23;20013;-82
2022/09/12 03:25:01;;;;;;;16.15;13.27;;;13.40;99.90;;;;;;6100053;23;20002;-81
2022/09/12 03:27:38;;;;;;;17.70;13.48;;;13.40;99.90;;;;;;6075681;23;20013;-81
2022/09/12 03:30:05;;;;;;;16.60;13.38;;;13.40;99.90;;;;;;6108498;23;20454;-82
2022/09/12 03:32:46;;;;;;;16.98;12.93;;;13.40;99.90;;;;;;6124265;23;20040;-82
2022/09/12 03:35:14;;;;;;;16.63;12.45;;;13.40;99.90;;;;;;6075985;23;20021;-83
2022/09/12 03:37:41;;;;;;;15.13;12.82;;;13.40;99.90;;;;;;6101514;23;20006;-82
2022/09/12 03:40:09;;;;;;;19.75;14.57;;;13.40;99.90;;;;;;6098263;23;20347;-82
2022/09/12 03:42:35;;;;;;;20.50;14.40;;;13.40;99.90;;;;;;6099531;23;20010;-82
2022/09/12 03:45:02;;;;;;;18.55;14.10;;;13.40;99.90;;;;;;6123400;23;20002;-83
2022/09/12 03:47:28;;;;;;;16.58;12.65;;;13.40;99.90;;;;;;6073958;23;20327;-81
2022/09/12 03:49:54;;;;;;;19.60;14.75;;;13.40;99.90;;;;;;6122239;23;20012;-81
2022/09/12 03:52:21;;;;;;;18.60;14.27;;;13.40;99.90;;;;;;6073581;23;20020;-81
2022/09/12 03:54:48;;;;;;;19.95;14.68;;;13.40;99.90;;;;;;6099938;23;20438;-82
2022/09/12 03:57:14;;;;;;;20.63;16.10;;;13.40;99.90;;;;;;6097686;23;20376;-81
2022/09/12 03:59:41;;;;;;;19.45;14.88;;;13.40;99.90;;;;;;6073163;23;20010;-83
2022/09/12 04:02:08;;;;;;;22.45;14.55;;;13.40;99.90;;;;;;6097972;23;20338;-81
2022/09/12 04:04:34;;;;;;;18.80;14.43;;;13.30;99.90;;;;;;6121945;23;20022;-82
2022/09/12 04:07:01;;;;;;;23.30;15.98;;;13.40;99.90;;;;;;6098798;23;20018;-82
2022/09/12 04:09:27;;;;;;;23.25;16.15;;;13.40;99.90;;;;;;6122666;23;20009;-82
2022/09/12 04:11:54;;;;;;;19.85;14.65;;;13.50;99.90;;;;;;6124709;23;20009;-83
2022/09/12 04:14:20;;;;;;;23.33;16.48;;;13.50;99.90;;;;;;6130883;23;20025;-82
2022/09/12 04:16:46;;;;;;;21.88;15.60;;;13.50;99.90;;;;;;6081954;23;20014;-81
2022/09/12 04:19:13;;;;;;;21.10;16.13;;;13.50;99.90;;;;;;6099270;23;20006;-82
2022/09/12 04:21:40;;;;;;;21.20;15.23;;;13.50;99.90;;;;;;6098418;23;20003;-83
2022/09/12 04:24:06;;;;;;;21.08;15.40;;;13.50;99.90;;;;;;6075171;23;20003;-82
2022/09/12 04:26:33;;;;;;;25.75;16.63;;;13.50;99.90;;;;;;6121551;23;20490;-81
2022/09/12 04:28:59;;;;;;;21.42;15.85;;;13.50;99.90;;;;;;6097344;23;20014;-81
2022/09/12 04:31:28;;;;;;;27.55;17.67;;;13.50;99.90;;;;;;6096088;23;20014;-81
2022/09/12 04:33:56;;;;;;;24.67;16.73;;;13.50;99.90;;;;;;6096542;23;20010;-80
2022/09/12 04:36:24;;;;;;;22.80;16.15;;;13.50;99.90;;;;;;6099432;23;20319;-80
2022/09/12 04:38:51;;;;;;;22.92;16.05;;;13.50;99.90;;;;;;6122845;23;20002;-80
2022/09/12 04:41:26;;;;;;;22.50;15.75;;;13.50;99.90;;;;;;6123334;23;20013;-81
2022/09/12 04:43:57;;;;;;;24.15;16.80;;;13.50;99.90;;;;;;6099420;23;20017;-80
2022/09/12 04:46:25;;;;;;;28.25;18.92;;;13.50;99.90;;;;;;6104657;23;20003;-81
2022/09/12 04:48:51;;;;;;;21.95;15.95;;;13.60;99.90;;;;;;6124940;23;20002;-81
2022/09/12 04:51:27;;;;;;;24.52;15.88;;;13.60;99.90;;;;;;6101213;23;20474;-80
2022/09/12 04:53:59;;;;;;;26.30;17.48;;;13.60;99.90;;;;;;6126567;23;20013;-81
2022/09/12 04:56:26;;;;;;;25.80;16.60;;;13.60;99.90;;;;;;6106015;23;20496;-80
2022/09/12 04:58:52;;;;;;;25.42;17.67;;;13.60;99.90;;;;;;6128301;23;20006;-80
2022/09/12 05:01:20;;;;;;;22.45;16.70;;;13.70;99.90;;;;;;6121717;23;20024;-81
2022/09/12 05:03:48;;;;;;;23.48;15.98;;;13.60;99.90;;;;;;6118351;23;20000;-81
2022/09/12 05:06:18;;;;;;;22.45;15.27;;;13.60;99.90;;;;;;6123644;23;20066;-82
2022/09/12 05:08:45;;;;;;;21.23;15.15;;;13.60;99.90;;;;;;6106891;23;20010;-80
2022/09/12 05:11:14;;;;;;;21.35;13.95;;;13.60;99.90;;;;;;6076045;23;20017;-81
2022/09/12 05:13:41;;;;;;;21.27;13.98;;;13.60;99.90;;;;;;6077036;23;20007;-81
2022/09/12 05:16:09;;;;;;;21.95;14.50;;;13.60;99.90;;;;;;6124385;23;20009;-81
2022/09/12 05:18:36;;;;;;;20.30;14.73;;;13.60;99.90;;;;;;6075029;23;20014;-81
2022/09/12 05:21:05;;;;;;;24.45;15.40;;;13.60;99.90;;;;;;6124960;23;19998;-80
2022/09/12 05:23:34;;;;;;;22.92;16.10;;;13.70;99.90;;;;;;6101892;23;20331;-81
2022/09/12 05:26:02;;;;;;;23.23;15.90;;;13.70;99.90;;;;;;6099354;23;19999;-80
2022/09/12 05:28:34;;;;;;;23.92;16.10;;;13.80;99.90;;;;;;6123654;23;20003;-81
2022/09/12 05:31:03;;;;;;;23.42;15.38;;;13.80;99.90;;;;;;6110228;23;20007;-81
2022/09/12 05:33:31;;;;;;;27.08;16.08;;;13.90;99.90;;;;;;6123354;23;20462;-81
2022/09/12 05:35:58;;;;;;;22.80;14.55;;;13.90;99.90;;;;;;6099662;23;20012;-80
2022/09/12 05:38:24;;;;;;;21.05;14.30;;;14.00;99.90;;;;;;6100862;23;20002;-81
2022/09/12 05:40:51;;;;;;;20.70;13.98;;;14.00;99.90;;;;;;6098919;23;20010;-81
2022/09/12 05:43:20;;;;;;;24.45;15.98;;;14.10;99.90;;;;;;6099916;23;20003;-80
2022/09/12 05:45:46;;;;;;;25.67;16.80;;;14.10;99.90;;;;;;6098136;23;20014;-79
2022/09/12 05:48:13;;;;;;;23.27;14.80;;;14.10;99.90;;;;;;6132867;23;20006;-81
2022/09/12 05:50:41;;;;;;;22.75;16.00;;;14.10;99.90;;;;;;6075199;23;20018;-80
2022/09/12 05:53:07;;;;;;;24.08;16.27;;;14.20;99.90;;;;;;6123588;23;20014;-81
2022/09/12 05:55:33;;;;;;;26.65;16.75;;;14.20;99.90;;;;;;6100467;23;20029;-80
2022/09/12 05:58:00;;;;;;;25.65;15.30;;;14.20;99.90;;;;;;6100779;23;20006;-79
2022/09/12 06:00:26;;;;;;;23.55;16.33;;;14.20;99.90;;;;;;6099961;23;20006;-79
2022/09/12 06:02:53;;;;;;;26.52;17.45;;;14.30;99.90;;;;;;6100796;23;20013;-80
2022/09/12 06:05:19;;;;;;;25.83;18.10;;;14.40;99.90;;;;;;6100689;23;20002;-80
2022/09/12 06:07:47;;;;;;;24.65;18.23;;;14.40;99.90;;;;;;6098927;23;20002;-79
2022/09/12 06:10:21;;;;;;;29.15;19.48;;;14.50;99.90;;;;;;6098557;23;20014;-80
2022/09/12 06:12:50;;;;;;;24.85;17.73;;;14.50;99.90;;;;;;6110636;23;20035;-80
2022/09/12 06:15:17;;;;;;;31.52;19.75;;;14.60;99.90;;;;;;6123195;23;20020;-80
2022/09/12 06:17:43;;;;;;;30.60;18.15;;;14.60;99.90;;;;;;6101658;23;20013;-79
2022/09/12 06:20:09;;;;;;;29.00;19.00;;;14.70;99.90;;;;;;6099805;23;20010;-79
2022/09/12 06:22:35;;;;;;;28.67;18.75;;;14.70;99.90;;;;;;6122460;23;20002;-79
2022/09/12 06:25:02;;;;;;;26.17;17.23;;;14.80;99.90;;;;;;6074645;23;20002;-79
2022/09/12 06:27:28;;;;;;;23.15;17.25;;;14.90;99.90;;;;;;6123070;23;20446;-79
2022/09/12 06:29:55;;;;;;;25.98;16.92;;;14.90;99.90;;;;;;6100764;23;20018;-80
2022/09/12 06:32:21;;;;;;;25.98;17.85;;;15.00;99.90;;;;;;6077365;23;20010;-80
2022/09/12 06:34:48;;;;;;;25.83;16.40;;;15.00;99.90;;;;;;6126403;23;20078;-81
2022/09/12 06:37:14;;;;;;;24.42;16.05;;;15.10;99.90;;;;;;6125432;23;20010;-81
2022/09/12 06:39:40;;;;;;;30.60;18.33;;;15.00;99.90;;;;;;6077519;23;20014;-80
2022/09/12 06:42:06;;;;;;;23.80;15.88;;;15.10;99.90;;;;;;6102983;23;20014;-81
2022/09/12 06:44:33;;;;;;;23.35;16.33;;;15.00;99.90;;;;;;6100645;23;20009;-79
2022/09/12 06:47:00;;;;;;;28.95;18.60;;;15.00;99.90;;;;;;6098516;23;20006;-80
2022/09/12 06:49:26;;;;;;;25.30;16.65;;;14.90;99.90;;;;;;6099727;23;20016;-80
2022/09/12 06:51:52;;;;;;;25.40;17.15;;;14.90;99.90;;;;;;6123431;23;20477;-80
2022/09/12 06:54:19;;;;;;;24.23;16.52;;;14.90;99.90;;;;;;6123263;23;20010;-80
2022/09/12 06:56:45;;;;;;;25.08;17.23;;;14.90;99.90;;;;;;6125173;23;20010;-81
2022/09/12 06:59:11;;;;;;;26.17;17.23;;;14.90;99.90;;;;;;6100926;23;20350;-81
2022/09/12 07:01:38;;;;;;;32.22;19.42;;;14.90;99.90;;;;;;6098939;23;20003;-81
2022/09/12 07:04:05;;;;;;;24.60;16.73;;;14.90;99.90;;;;;;6122834;23;20017;-81
2022/09/12 07:06:37;;;;;;;25.80;16.70;;;14.90;99.90;;;;;;6126061;23;20010;-81
2022/09/12 07:09:05;;;;;;;24.45;16.50;;;14.90;99.90;;;;;;6103328;23;20016;-80
2022/09/12 07:11:34;;;;;;;28.05;17.92;;;15.00;99.90;;;;;;6125971;23;20013;-79
2022/09/12 07:14:02;;;;;;;25.83;17.33;;;15.20;99.90;;;;;;6102006;23;20006;-80
2022/09/12 07:16:29;;;;;;;22.77;16.02;;;15.40;99.90;;;;;;6104144;23;20332;-81
2022/09/12 07:18:59;;;;;;;32.30;20.73;;;15.70;99.90;;;;;;6101894;23;20002;-82
2022/09/12 07:21:26;;;;;;;29.75;20.40;;;16.00;99.90;;;;;;6127676;23;20006;-81
2022/09/12 07:23:55;;;;;;;29.25;19.15;;;16.30;99.90;;;;;;6077362;23;20009;-82
2022/09/12 07:26:22;;;;;;;35.28;23.02;;;16.50;99.90;;;;;;6121985;23;20002;-81
2022/09/12 07:28:54;;;;;;;38.10;24.35;;;16.60;99.90;;;;;;6073548;23;20002;-81
2022/09/12 07:31:25;;;;;;;32.47;23.67;;;16.60;99.90;;;;;;6121387;23;20014;-82
2022/09/12 07:33:52;;;;;;;31.77;20.97;;;16.60;99.90;;;;;;6130752;23;20002;-82
2022/09/12 07:36:24;;;;;;;29.60;19.75;;;16.50;99.90;;;;;;6119871;23;20234;-81
2022/09/12 07:38:55;;;;;;;34.50;22.92;;;16.60;99.90;;;;;;6120529;23;20006;-80
2022/09/12 07:41:30;;;;;;;29.38;19.60;;;16.60;99.90;;;;;;6106450;23;20003;-82
2022/09/12 07:43:58;;;;;;;34.78;22.48;;;16.70;99.90;;;;;;6121623;23;20017;-82
2022/09/12 07:46:26;;;;;;;32.53;21.25;;;16.90;99.90;;;;;;6097178;23;20011;-80
2022/09/12 07:48:54;;;;;;;33.45;20.88;;;17.10;99.90;;;;;;6099248;23;19999;-82
2022/09/12 07:51:22;;;;;;;35.42;20.13;;;17.30;99.90;;;;;;6097194;23;20009;-82
2022/09/12 07:53:53;;;;;;;40.28;27.23;;;17.50;99.90;;;;;;6121720;23;20445;-80
2022/09/12 07:56:20;;;;;;;38.70;25.60;;;17.70;99.90;;;;;;6073147;23;20003;-81
2022/09/12 07:58:46;;;;;;;33.20;23.75;;;17.90;99.90;;;;;;6072590;23;20017;-80
2022/09/12 08:01:15;;;;;;;32.50;22.55;;;17.90;99.90;;;;;;6106709;23;20009;-80
2022/09/12 08:03:44;;;;;;;33.47;25.33;;;18.00;99.90;;;;;;6133967;23;20013;-80
2022/09/12 08:06:18;;;;;;;33.78;24.08;;;17.90;99.90;;;;;;6109201;23;20007;-79
2022/09/12 08:08:46;;;;;;;31.73;23.23;;;17.80;99.90;;;;;;6138447;23;20002;-82
2022/09/12 08:11:17;;;;;;;31.67;22.80;;;17.80;99.90;;;;;;6100610;23;20009;-82
2022/09/12 08:13:47;;;;;;;34.22;22.52;;;17.80;99.90;;;;;;6077142;23;20022;-81
2022/09/12 08:16:20;;;;;;;39.13;25.55;;;17.90;99.90;;;;;;6118525;23;20003;-80
2022/09/12 08:18:47;;;;;;;;;;;18.00;99.90;;;;;;6122796;23;20021;-80
2022/09/12 08:21:24;;;;;;;28.83;19.92;;;18.20;99.90;;;;;;6099045;23;19916;-80
2022/09/12 08:23:56;;;;;;;30.00;21.23;;;18.40;99.90;;;;;;6051657;23;20458;-81
2022/09/12 08:26:23;;;;;;;41.30;27.05;;;18.60;99.90;;;;;;6109072;23;19999;-81
2022/09/12 08:28:50;;;;;;;28.95;21.52;;;18.70;99.90;;;;;;6121338;23;20002;-80
2022/09/12 08:31:19;;;;;;;33.50;22.88;;;18.90;99.90;;;;;;6098987;23;20007;-81
2022/09/12 08:33:46;;;;;;;31.48;22.02;;;19.10;99.90;;;;;;6123857;23;20011;-81
2022/09/12 08:36:18;;;;;;;30.67;22.20;;;19.10;99.90;;;;;;6098619;23;20009;-81
2022/09/12 08:38:46;;;;;;;32.05;22.85;;;19.20;99.90;;;;;;6100542;23;20002;-81
2022/09/12 08:41:33;;;;;;;28.48;21.70;;;19.20;99.90;;;;;;6097957;23;20478;-79
2022/09/12 08:44:24;;;;;;;34.83;25.65;;;19.30;99.90;;;;;;6098622;23;20005;-81
2022/09/12 08:47:15;;;;;;;25.48;19.63;;;19.40;99.90;;;;;;6121827;23;20470;-81
2022/09/12 08:50:09;;;;;;;22.00;18.05;;;19.50;99.90;;;;;;6100520;23;20017;-81
2022/09/12 08:52:47;;;;;;;25.20;18.67;;;19.70;99.90;;;;;;6109456;23;20011;-80
2022/09/12 08:55:33;;;;;;;21.30;16.95;;;19.90;99.90;;;;;;6097751;23;20016;-81
2022/09/12 08:58:06;;;;;;;23.33;18.38;;;20.00;99.90;;;;;;6072807;23;20010;-80
2022/09/12 09:00:40;;;;;;;21.00;15.75;;;20.10;99.90;;;;;;6109191;23;20342;-81
2022/09/12 09:03:34;;;;;;;24.45;18.98;;;20.30;99.90;;;;;;6083095;23;20007;-81
2022/09/12 09:06:22;;;;;;;19.02;15.68;;;20.50;99.90;;;;;;6121550;23;20324;-81
2022/09/12 09:08:57;;;;;;;25.10;18.52;;;20.60;99.90;;;;;;6124406;23;20018;-82
2022/09/12 09:11:56;;;;;;;20.63;16.20;;;20.80;99.90;;;;;;6109905;23;20501;-80
2022/09/12 09:14:50;;;;;;;22.45;15.80;;;20.90;99.90;;;;;;6111515;23;20009;-81
2022/09/12 09:17:46;;;;;;;19.63;15.25;;;21.10;99.90;;;;;;6079504;23;20006;-81
2022/09/12 09:20:45;;;;;;;18.65;14.38;;;21.30;99.90;;;;;;6079832;23;20029;-81
2022/09/12 09:23:29;;;;;;;19.48;16.20;;;21.40;99.90;;;;;;6081414;23;20013;-82
2022/09/12 09:26:00;;;;;;;21.05;17.35;;;21.60;99.90;;;;;;6114916;23;20012;-81
2022/09/12 09:28:43;;;;;;;20.48;14.73;;;21.60;99.90;;;;;;6133775;23;20002;-81
2022/09/12 09:31:39;;;;;;;15.45;12.88;;;21.70;99.90;;;;;;6130586;23;20010;-82
2022/09/12 09:39:08;;;;;;;26.25;17.90;;;22.00;99.90;;;;;;6132164;23;20036;-80
2022/09/12 09:43:04;;;;;;;18.90;15.68;;;22.10;99.90;;;;;;6148795;23;20032;-82
2022/09/12 09:45:49;;;;;;;19.92;15.85;;;22.30;99.90;;;;;;6121805;23;20018;-81
2022/09/12 09:48:47;;;;;;;15.13;11.68;;;22.40;99.90;;;;;;6076370;23;20635;-82
2022/09/12 09:51:45;;;;;;;13.63;10.70;;;22.50;99.90;;;;;;6078251;23;20002;-82
2022/09/12 09:54:37;;;;;;;15.23;12.55;;;22.70;99.90;;;;;;6102987;23;20006;-82
2022/09/12 09:57:04;;;;;;;14.13;12.32;;;22.80;99.90;;;;;;6092884;23;20013;-82
2022/09/12 10:00:30;;;;;;;10.70;8.85;;;22.80;99.90;;;;;;6104920;23;20021;-82
2022/09/12 10:03:58;;;;;;;9.73;8.73;;;23.00;99.90;;;;;;6126752;23;20029;-82
2022/09/12 10:10:28;;;;;;;11.25;8.45;;;23.40;99.90;;;;;;6097454;23;20346;-82
2022/09/12 10:17:45;;;;;;;11.45;9.57;;;23.80;99.90;;;;;;6121426;23;20418;-82
2022/09/12 10:20:51;;;;;;;8.68;7.00;;;24.00;99.90;;;;;;6109236;23;20443;-83
2022/09/12 10:24:22;;;;;;;7.75;6.75;;;24.30;99.90;;;;;;6085423;23;20003;-83
2022/09/12 10:27:36;;;;;;;7.00;6.30;;;24.60;99.90;;;;;;6096763;23;20038;-83
2022/09/12 10:30:23;;;;;;;8.63;6.63;;;25.00;99.90;;;;;;6106012;23;20014;-82
2022/09/12 10:33:10;;;;;;;7.18;5.63;;;25.30;99.90;;;;;;6131157;23;20021;-83
2022/09/12 10:36:18;;;;;;;8.98;5.93;;;25.60;99.90;;;;;;6116867;23;20016;-82
2022/09/12 10:39:31;;;;;;;7.03;5.22;;;25.80;99.90;;;;;;6101398;23;20019;-82
2022/09/12 10:46:30;;;;;;;6.05;2.78;;;26.40;99.90;;;;;;6044582;23;20004;-81
2022/09/12 10:59:26;;;;;;;3.70;2.83;;;27.80;95.40;;;;;;6102625;23;20006;-81
2022/09/12 11:03:36;;;;;;;4.90;2.58;;;28.30;94.50;;;;;;6087610;23;20439;-82
2022/09/12 11:07:09;;;;;;;4.07;2.72;;;28.70;93.40;;;;;;6092798;23;20011;-80
2022/09/12 11:09:55;;;;;;;3.10;2.45;;;28.90;91.20;;;;;;6080580;23;20017;-80
2022/09/12 11:12:27;;;;;;;5.07;1.75;;;28.90;90.50;;;;;;6081402;23;19999;-80
2022/09/12 11:15:27;;;;;;;3.20;2.40;;;29.00;90.60;;;;;;6120326;23;20000;-80
2022/09/12 11:18:24;;;;;;;2.65;1.33;;;29.40;89.20;;;;;;6101453;23;20002;-80
2022/09/12 11:21:10;;;;;;;1.90;1.20;;;29.60;88.10;;;;;;6082532;23;20038;-79
2022/09/12 11:24:21;;;;;;;2.10;1.70;;;30.00;87.40;;;;;;6120264;23;20022;-79
2022/09/12 11:27:28;;;;;;;2.03;1.73;;;30.40;86.00;;;;;;6120552;23;20451;-79
2022/09/12 11:30:13;;;;;;;2.20;1.30;;;30.70;82.40;;;;;;6103769;23;19998;-82
2022/09/12 11:33:04;;;;;;;2.35;1.42;;;31.00;82.60;;;;;;6103936;23;20017;-80
2022/09/12 11:35:34;;;;;;;2.53;1.93;;;31.40;81.30;;;;;;6137762;23;20006;-81
2022/09/12 11:38:32;;;;;;;2.30;1.15;;;31.60;78.20;;;;;;6105211;23;20067;-81
2022/09/12 11:41:07;;;;;;;2.17;1.55;;;31.70;76.80;;;;;;6089460;23;20361;-81
2022/09/12 11:43:42;;;;;;;2.40;1.27;;;31.90;75.00;;;;;;6118974;23;20002;-82
2022/09/12 11:46:13;;;;;;;2.13;1.25;;;32.00;73.80;;;;;;6104379;23;20439;-82
2022/09/12 11:49:14;;;;;;;3.17;2.35;;;32.20;73.00;;;;;;6101344;23;20009;-81
2022/09/12 11:52:04;;;;;;;2.15;1.13;;;32.30;71.40;;;;;;6078537;23;20065;-81
2022/09/12 11:54:59;;;;;;;2.38;1.45;;;32.30;71.40;;;;;;6078462;23;20461;-81
2022/09/12 11:57:55;;;;;;;1.10;0.80;;;32.70;70.80;;;;;;6109879;23;20010;-83
2022/09/12 12:00:29;;;;;;;7.20;6.50;;;33.10;70.40;;;;;;6077928;23;20446;-81
2022/09/12 12:03:17;;;;;;;7.88;7.15;;;33.50;68.20;;;;;;6101965;23;20007;-80
2022/09/12 12:06:22;;;;;;;5.30;3.63;;;33.60;67.00;;;;;;6077682;23;20002;-82
2022/09/12 12:08:58;;;;;;;2.72;1.60;;;33.70;66.70;;;;;;6101222;23;20011;-82
2022/09/12 12:11:42;;;;;;;3.03;1.85;;;34.00;65.90;;;;;;6056228;23;20013;-82
2022/09/12 12:14:23;;;;;;;4.25;1.10;;;34.20;64.10;;;;;;6112377;23;20006;-80
2022/09/12 12:16:50;;;;;;;1.88;1.00;;;33.70;64.30;;;;;;6110949;23;20006;-82
2022/09/12 12:19:16;;;;;;;2.35;1.30;;;33.30;65.30;;;;;;6101003;23;20013;-81
2022/09/12 12:21:44;;;;;;;4.72;1.35;;;33.10;65.00;;;;;;6100171;23;20010;-81
2022/09/12 12:24:25;;;;;;;2.50;1.23;;;33.20;63.60;;;;;;6100581;23;20429;-81
2022/09/12 12:27:21;;;;;;;2.28;0.73;;;33.40;63.30;;;;;;6096152;23;20006;-84
2022/09/12 12:29:47;;;;;;;3.33;2.35;;;33.60;63.50;;;;;;6071778;23;20021;-80
2022/09/12 12:32:18;;;;;;;2.70;2.22;;;33.90;62.30;;;;;;6097242;23;19998;-81
2022/09/12 12:34:46;;;;;;;3.00;2.65;;;34.10;60.80;;;;;;6097925;23;20078;-84
2022/09/12 12:37:30;;;;;;;2.75;1.50;;;34.10;60.20;;;;;;6123047;23;20074;-83
2022/09/12 12:40:07;;;;;;;1.73;1.10;;;34.30;60.50;;;;;;6122125;23;20023;-84
2022/09/12 12:42:35;;;;;;;3.08;1.20;;;34.60;60.00;;;;;;6150461;23;20021;-81
2022/09/12 12:45:08;;;;;;;2.63;1.20;;;34.80;59.10;;;;;;6110716;23;20010;-82
2022/09/12 12:47:38;;;;;;;3.08;1.33;;;35.00;59.10;;;;;;6134859;23;20042;-81
2022/09/12 12:50:13;;;;;;;3.22;1.77;;;35.00;58.10;;;;;;6104819;23;20003;-81
2022/09/12 12:52:53;;;;;;;3.75;1.40;;;35.00;57.60;;;;;;6115654;23;20002;-80
2022/09/12 12:55:30;;;;;;;3.60;2.47;;;35.10;57.50;;;;;;6123509;23;19990;-82
2022/09/12 12:58:02;;;;;;;1.70;1.00;;;35.20;56.70;;;;;;6124390;23;20009;-83
2022/09/12 13:00:31;;;;;;;2.88;1.63;;;35.20;56.70;;;;;;6154402;23;20001;-83
2022/09/12 13:03:05;;;;;;;2.45;2.25;;;35.20;57.10;;;;;;6087459;23;20009;-80
2022/09/12 13:05:39;;;;;;;2.60;1.48;;;35.10;55.40;;;;;;6147270;23;20009;-81
2022/09/12 13:08:30;;;;;;;3.03;1.48;;;34.90;56.50;;;;;;6109957;23;20017;-82
2022/09/12 13:11:13;;;;;;;2.22;1.00;;;35.10;56.50;;;;;;6105207;23;20328;-81
2022/09/12 13:13:52;;;;;;;1.70;1.00;;;35.40;56.40;;;;;;6083118;23;20017;-81
2022/09/12 13:16:50;;;;;;;2.03;0.70;;;35.80;54.80;;;;;;6075747;23;20021;-80
2022/09/12 13:19:27;;;;;;;1.42;0.90;;;35.90;54.20;;;;;;6095492;23;20010;-80
2022/09/12 13:22:06;;;;;;;2.25;0.68;;;36.20;53.70;;;;;;6110296;23;20009;-81
2022/09/12 13:24:33;;;;;;;1.27;0.80;;;36.40;53.10;;;;;;6079249;23;20010;-82
2022/09/12 13:27:01;;;;;;;1.88;0.90;;;36.60;52.90;;;;;;6103823;23;20002;-81
2022/09/12 13:29:28;;;;;;;2.70;1.10;;;36.90;52.60;;;;;;6102913;23;19998;-81
2022/09/12 13:31:59;;;;;;;1.30;0.80;;;37.00;51.80;;;;;;6127697;23;20013;-82
2022/09/12 13:34:35;;;;;;;4.93;1.38;;;36.90;51.50;;;;;;6127481;23;20019;-81
2022/09/12 13:37:13;;;;;;;1.80;0.70;;;36.70;51.20;;;;;;6088939;23;20006;-82
2022/09/12 13:40:06;;;;;;;1.88;1.02;;;36.50;52.00;;;;;;6102319;23;20016;-81
2022/09/12 13:43:23;;;;;;;1.75;0.70;;;36.40;51.40;;;;;;6103224;23;20355;-81
2022/09/12 13:45:51;;;;;;;3.63;0.90;;;36.40;52.20;;;;;;6087707;23;20319;-82
2022/09/12 13:48:24;;;;;;;1.48;0.80;;;36.60;51.50;;;;;;6102109;23;20293;-81
2022/09/12 13:50:55;;;;;;;1.60;1.00;;;36.80;51.10;;;;;;6078173;23;20025;-80
2022/09/12 13:53:25;;;;;;;1.23;0.95;;;36.70;50.70;;;;;;6113249;23;20002;-80
2022/09/12 13:55:58;;;;;;;2.53;1.23;;;36.50;50.60;;;;;;6108228;23;20010;-82